»·PEaware :: AAL343 KGJT-KCOS

AAL343 :: KGJT-KCOS

FLIGHT INFORMATION

Flight Status: Arrived
Operator:
American Airlines
More flights by this operator :: More flights under this callsign
Pilot: James W. (12414)
Aircraft: BOEING 737-800
(B738)
More flights by this aircraft type
Origin: KGJT Walker
United States
Destination: KCOS City Of Colorado Springs Mun
United States
More flights between these airports :: More routes between these airports
Route: +RHONE2 JNC HBU DBRY3
File this flight plan on PilotEdge
Remarks:
Altitude:
(Current/Filed)
290ft
Speed:
(Current/Filed)
450kts
Departed: 11-Oct-17 06:15 PM
Arrived: 11-Oct-17 07:03 PM
Distance/Time
Traveled:
180nm/0:48
Distance/Time
To Go:
Arrived

Flight Plot

Page will automatically refresh every two minutes.

Flight plan parsing failed; only flown route is shown


Map Options




Map Legend


Flown Route
Filed Route
Departure Airport
Arrival Airport
Navaid (VOR, NDB)
Fix

Horizontal Profiles

Position Reports

Time Latitude Longitude Heading Altitude Ground
Speed
11-Oct-17 17:49 39.122967 -108.528274 260 4864ft 0kts
11-Oct-17 17:50 39.122967 -108.528274 260 4864ft 0kts
11-Oct-17 17:51 39.122967 -108.528274 260 4864ft 0kts
11-Oct-17 17:52 39.122967 -108.528274 260 4864ft 0kts
11-Oct-17 17:53 39.122967 -108.528274 260 4864ft 0kts
11-Oct-17 17:54 39.122967 -108.528274 260 4864ft 0kts
11-Oct-17 17:55 39.122967 -108.528274 260 4864ft 0kts
11-Oct-17 17:56 39.122967 -108.528274 260 4864ft 0kts
11-Oct-17 17:57 39.122967 -108.528274 260 4864ft 0kts
11-Oct-17 17:58 39.122967 -108.528274 260 4864ft 0kts
11-Oct-17 17:59 39.122967 -108.528274 260 4864ft 0kts
11-Oct-17 18:00 39.122967 -108.528274 260 4864ft 0kts
11-Oct-17 18:01 39.122967 -108.528274 260 4864ft 0kts
11-Oct-17 18:02 39.122967 -108.528274 260 4864ft 0kts
11-Oct-17 18:03 39.122967 -108.528274 260 4864ft 0kts
11-Oct-17 18:04 39.122967 -108.528274 260 4864ft 0kts
11-Oct-17 18:05 39.122967 -108.528274 260 4864ft 0kts
11-Oct-17 18:06 39.122967 -108.528274 260 4864ft 0kts
11-Oct-17 18:07 39.122967 -108.528274 260 4864ft 0kts
11-Oct-17 18:08 39.122967 -108.528274 260 4864ft 0kts
11-Oct-17 18:09 39.122967 -108.528274 260 4864ft 0kts
11-Oct-17 18:10 39.122967 -108.528274 260 4864ft 0kts
11-Oct-17 18:11 39.122967 -108.528274 260 4864ft 0kts
11-Oct-17 18:12 39.122985 -108.528150 260 4864ft 2kts
11-Oct-17 18:13 39.123204 -108.527862 148 4865ft 1kts
11-Oct-17 18:14 39.123308 -108.528038 119 4864ft 0kts
11-Oct-17 18:15 39.123111 -108.527325 108 4864ft 11kts
11-Oct-17 18:16 39.121074 -108.521487 125 4864ft 18kts
11-Oct-17 18:17 39.117993 -108.515667 96 4865ft 0kts
11-Oct-17 18:18 39.118405 -108.514667 33 4865ft 11kts
11-Oct-17 18:19 39.125865 -108.527797 303 4865ft 149kts
11-Oct-17 18:20 39.162648 -108.587301 293 5617ft 251kts
11-Oct-17 18:21 39.194719 -108.668007 276 6756ft 251kts
11-Oct-17 18:22 39.152076 -108.726410 206 9037ft 256kts
11-Oct-17 18:23 39.087786 -108.767925 188 11328ft 278kts
11-Oct-17 18:24 39.028746 -108.696472 122 13808ft 342kts
11-Oct-17 18:25 38.985851 -108.580607 119 16168ft 377kts
11-Oct-17 18:26 38.941336 -108.454717 118 18435ft 401kts
11-Oct-17 18:27 38.896798 -108.328003 119 20575ft 416kts
11-Oct-17 18:28 38.849763 -108.193596 119 22824ft 424kts
11-Oct-17 18:29 38.800904 -108.053515 119 24967ft 440kts
11-Oct-17 18:30 38.750526 -107.908755 119 26868ft 457kts
11-Oct-17 18:31 38.698515 -107.758541 119 28569ft 472kts
11-Oct-17 18:32 38.645230 -107.604274 119 29098ft 478kts
11-Oct-17 18:33 38.592191 -107.449863 119 29124ft 478kts
11-Oct-17 18:34 38.540102 -107.297934 119 29173ft 478kts
11-Oct-17 18:35 38.487455 -107.143465 119 29190ft 478kts
11-Oct-17 18:36 38.444124 -106.984551 97 29185ft 493kts
11-Oct-17 18:37 38.438088 -106.810836 97 29194ft 492kts
11-Oct-17 18:38 38.427191 -106.637873 97 29194ft 492kts
11-Oct-17 18:39 38.416451 -106.464699 97 29198ft 491kts
11-Oct-17 18:40 38.406025 -106.294017 98 29197ft 490kts
11-Oct-17 18:41 38.395805 -106.120925 97 29199ft 490kts
11-Oct-17 18:42 38.385758 -105.948366 97 29200ft 490kts
11-Oct-17 18:44 38.375884 -105.773259 97 29223ft 509kts
11-Oct-17 18:45 38.366119 -105.595355 97 28995ft 508kts
11-Oct-17 18:46 38.356849 -105.422350 96 26632ft 478kts
11-Oct-17 18:47 38.348474 -105.259901 97 23994ft 452kts
11-Oct-17 18:48 38.340576 -105.104921 97 21358ft 430kts
11-Oct-17 18:49 38.330776 -104.957527 97 18724ft 413kts
11-Oct-17 18:50 38.320928 -104.814194 97 16112ft 402kts
11-Oct-17 18:51 38.326474 -104.686918 58 15837ft 333kts
11-Oct-17 18:52 38.395644 -104.646083 355 15836ft 260kts
11-Oct-17 18:53 38.469713 -104.644076 354 15918ft 269kts
11-Oct-17 18:54 38.541750 -104.642025 4 14964ft 290kts
11-Oct-17 18:55 38.621289 -104.610347 13 12863ft 310kts
11-Oct-17 18:56 38.701466 -104.577644 13 11008ft 277kts
11-Oct-17 18:57 38.771006 -104.550865 13 8640ft 251kts
11-Oct-17 18:58 38.826621 -104.536159 358 8555ft 183kts
11-Oct-17 18:59 38.878545 -104.534272 357 8633ft 186kts
11-Oct-17 19:00 38.931524 -104.532690 357 8696ft 199kts
11-Oct-17 19:01 38.981027 -104.547267 295 8630ft 183kts
11-Oct-17 19:02 38.978750 -104.608712 257 8032ft 171kts
11-Oct-17 19:03 38.959916 -104.661421 213 8086ft 168kts
11-Oct-17 19:04 38.921196 -104.684674 183 8031ft 154kts
11-Oct-17 19:05 38.878086 -104.685310 182 7379ft 152kts
11-Oct-17 19:06 38.831633 -104.685660 181 6602ft 175kts
11-Oct-17 19:07 38.795394 -104.685791 177 6208ft 59kts
11-Oct-17 19:08 38.791754 -104.686717 210 6208ft 0kts
11-Oct-17 19:09 38.793697 -104.687890 358 6208ft 19kts
11-Oct-17 19:10 38.800165 -104.687899 359 6208ft 26kts
11-Oct-17 19:11 38.802774 -104.692938 270 6208ft 32kts

Navigation Log

Ident Type
Flight plan parsing failed, navigation log unavailable